PAMD METAR and TAF weather

Enter ICAO airport designator
Station Type Date Time Source
PAMD METAR 2022/08/13 11:15 UTC NOAA

PAMD 131115Z AUTO 13012KT 2 1/2SM -RA BR BKN003 OVC009 13/13 A2974 RMK AO2 PNO $


Station Type Date Time Source
PAMD Decoded METAR 2022/08/13 11:15 UTC NOAA

Middleton Island, Middleton Island Airport, AK, United States (PAMD) 59-26N 146-18W 14M
Aug 13, 2022 - 07:15 AM EDT / 2022.08.13 1115 UTC
Wind: from the SE (130 degrees) at 14 MPH (12 KT):0
Visibility: 2 1/2 mile(s):0
Sky conditions: overcast
Weather: light rain; mist
Temperature: 55 F (13 C)
Dew Point: 55 F (13 C)
Relative Humidity: 100%
Pressure (altimeter): 29.74 in. Hg (1007 hPa)
ob: PAMD 131115Z AUTO 13012KT 2 1/2SM -RA BR BKN003 OVC009 13/13 A2974 RMK AO2 PNO
cycle: 11

Station Type Date Time Source
PAMD TAF UTC NOAA

Error!

Example: see airport list